TimePST,TemperatureF,Dew PointF,Humidity,Sea Level PressureIn,VisibilityMPH,Wind Direction,Wind SpeedMPH,Gust SpeedMPH,PrecipitationIn,Events,Conditions,WindDirDegrees,DateUTC
12:53 AM,17.1,12.9,84,30.61,5.0,Calm,Calm,-,N/A,,Clear,0,2013-01-16 08:53:00
1:53 AM,17.1,12.0,81,30.61,5.0,WNW,3.5,-,N/A,,Haze,290,2013-01-16 09:53:00
2:53 AM,17.1,12.0,81,30.61,4.0,West,4.6,-,N/A,,Haze,280,2013-01-16 10:53:00
3:53 AM,16.0,12.0,84,30.61,4.0,WNW,3.5,-,N/A,,Clear,290,2013-01-16 11:53:00
4:53 AM,15.1,10.0,80,30.60,5.0,WSW,4.6,-,N/A,,Haze,240,2013-01-16 12:53:00
5:53 AM,15.1,10.9,84,30.60,4.0,Calm,Calm,-,N/A,,Clear,0,2013-01-16 13:53:00
6:53 AM,14.0,9.0,80,30.62,5.0,West,3.5,-,N/A,,Haze,280,2013-01-16 14:53:00
7:43 AM,15.8,10.4,79,30.58,4.0,West,5.8,-,N/A,,Haze,280,2013-01-16 15:43:00
7:53 AM,17.1,12.0,81,30.65,3.0,West,3.5,-,N/A,,Haze,280,2013-01-16 15:53:00
8:07 AM,19.4,14.0,80,30.60,2.5,West,4.6,-,N/A,,Haze,280,2013-01-16 16:07:00
8:36 AM,21.2,17.6,86,30.61,3.0,Calm,Calm,-,N/A,,Overcast,0,2013-01-16 16:36:00
8:45 AM,21.2,17.6,86,30.61,2.5,West,3.5,-,N/A,,Haze,280,2013-01-16 16:45:00
8:53 AM,21.9,18.0,85,30.66,2.5,West,3.5,-,N/A,,Overcast,280,2013-01-16 16:53:00
9:53 AM,25.0,19.9,81,30.67,2.5,Calm,Calm,-,N/A,,Haze,0,2013-01-16 17:53:00
10:53 AM,26.1,21.0,81,30.66,2.5,Calm,Calm,-,N/A,,Haze,0,2013-01-16 18:53:00
11:53 AM,26.6,23.0,86,30.59,2.0,Calm,Calm,-,N/A,,Overcast,0,2013-01-16 19:53:00
12:02 PM,26.6,23.0,86,30.59,1.8,Calm,Calm,-,N/A,,Overcast,0,2013-01-16 20:02:00
12:44 PM,28.4,23.0,80,30.58,2.0,Calm,Calm,-,N/A,,Haze,0,2013-01-16 20:44:00
12:53 PM,28.0,24.1,85,30.63,2.0,Calm,Calm,-,N/A,,Overcast,0,2013-01-16 20:53:00
1:53 PM,28.0,24.1,85,30.63,2.0,Calm,Calm,-,N/A,,Overcast,0,2013-01-16 21:53:00
2:53 PM,28.0,24.1,85,30.63,2.0,Calm,Calm,-,N/A,,Overcast,0,2013-01-16 22:53:00
3:53 PM,28.0,24.1,85,30.63,2.5,WSW,4.6,-,N/A,,Overcast,240,2013-01-16 23:53:00
4:00 PM,28.4,24.8,86,30.58,2.5,SW,3.5,-,N/A,,Overcast,230,2013-01-17 00:00:00
4:53 PM,28.0,24.1,85,30.63,2.5,Calm,Calm,-,N/A,,Overcast,0,2013-01-17 00:53:00
5:53 PM,28.0,24.1,85,30.63,2.5,SSW,3.5,-,N/A,,Overcast,210,2013-01-17 01:53:00
6:17 PM,28.4,24.8,86,30.57,2.5,SSW,3.5,-,N/A,,Overcast,210,2013-01-17 02:17:00
6:53 PM,28.0,24.1,85,30.63,2.5,Calm,Calm,-,N/A,,Overcast,0,2013-01-17 02:53:00
7:53 PM,28.0,24.1,85,30.63,2.5,Calm,Calm,-,N/A,,Overcast,0,2013-01-17 03:53:00
8:53 PM,28.0,24.1,85,30.63,2.5,Calm,Calm,-,N/A,,Overcast,0,2013-01-17 04:53:00
9:53 PM,28.0,24.1,85,30.63,3.0,Calm,Calm,-,N/A,,Overcast,0,2013-01-17 05:53:00
10:30 PM,28.4,24.8,86,30.58,2.5,Calm,Calm,-,N/A,,Overcast,0,2013-01-17 06:30:00
10:39 PM,28.4,24.8,86,30.58,3.0,WNW,3.5,-,N/A,,Overcast,300,2013-01-17 06:39:00
10:53 PM,28.0,24.1,85,30.63,3.0,Calm,Calm,-,N/A,,Overcast,0,2013-01-17 06:53:00
11:43 PM,28.4,24.8,86,30.59,4.0,Calm,Calm,-,N/A,,Overcast,0,2013-01-17 07:43:00
11:53 PM,28.0,24.1,85,30.64,4.0,Calm,Calm,-,N/A,,Overcast,0,2013-01-17 07:53:00